Time;durP1;ratioP1;P1;durP2;ratioP2;P2;SDS_P1;SDS_P2;PMS_P1;PMS_P2;Temp;Humidity;BMP_temperature;BMP_pressure;BME280_temperature;BME280_humidity;BME280_pressure;Samples;Min_cycle;Max_cycle;Signal;HPM_P1;HPM_P2
2023/04/20 00:00:09;;;;;;;;;14.33;8.33;;;;;13.75;37.18;101285.56;5019291;28;47168;-49
2023/04/20 00:02:35;;;;;;;;;12.00;10.00;;;;;13.70;36.99;101294.06;5019169;28;45452;-48
2023/04/20 00:05:01;;;;;;;;;10.00;8.33;;;;;13.63;37.24;101282.28;5018899;28;45335;-49
2023/04/20 00:07:28;;;;;;;;;12.67;11.00;;;;;13.61;37.34;101285.13;5001541;28;45426;-48
2023/04/20 00:09:53;;;;;;;;;9.00;9.00;;;;;13.56;37.08;101292.75;5018955;28;46220;-50
2023/04/20 00:12:19;;;;;;;;;16.00;8.33;;;;;13.50;37.66;101271.97;5018916;28;45435;-49
2023/04/20 00:14:44;;;;;;;;;21.00;17.00;;;;;13.50;37.94;101288.03;5001341;28;45995;-48
2023/04/20 00:17:09;;;;;;;;;11.00;11.00;;;;;13.46;37.38;101273.28;5019370;28;45262;-50
2023/04/20 00:19:35;;;;;;;;;8.67;8.67;;;;;13.40;37.86;101268.53;5019145;28;45224;-49
2023/04/20 00:22:00;;;;;;;;;14.00;9.67;;;;;13.39;37.73;101277.53;5018472;28;45307;-49
2023/04/20 00:24:26;;;;;;;;;13.67;10.33;;;;;13.36;37.83;101276.03;5018925;28;45359;-48
2023/04/20 00:26:51;;;;;;;;;16.00;11.33;;;;;13.22;37.99;101255.13;5019235;28;45277;-48
2023/04/20 00:29:16;;;;;;;;;13.33;9.00;;;;;13.33;37.97;101265.63;5018555;28;46161;-51
2023/04/20 00:31:42;;;;;;;;;12.67;10.67;;;;;13.33;38.05;101273.66;5018996;28;45334;-50
2023/04/20 00:34:07;;;;;;;;;15.00;14.00;;;;;13.28;38.22;101267.09;5019103;28;45276;-48
2023/04/20 00:36:32;;;;;;;;;9.00;8.33;;;;;13.29;37.73;101255.41;5019110;28;45528;-50
2023/04/20 00:38:58;;;;;;;;;8.67;8.67;;;;;13.31;38.00;101267.59;5018756;28;46252;-52
2023/04/20 00:41:23;;;;;;;;;13.33;12.33;;;;;13.32;37.96;101263.97;5018660;28;45466;-52
2023/04/20 00:43:53;;;;;;;;;13.67;8.33;;;;;13.29;37.67;101258.91;5019000;28;45267;-51
2023/04/20 00:46:20;;;;;;;;;13.33;11.00;;;;;13.32;37.63;101263.97;5019134;28;45367;-50
2023/04/20 00:48:45;;;;;;;;;12.67;10.00;;;;;13.31;37.85;101253.41;5018420;28;45481;-49
2023/04/20 00:51:11;;;;;;;;;13.67;10.67;;;;;13.32;37.80;101244.44;5018733;28;45371;-52
2023/04/20 00:53:37;;;;;;;;;10.33;9.00;;;;;13.30;37.81;101241.88;5018644;28;45304;-48
2023/04/20 00:56:03;;;;;;;;;19.33;10.33;;;;;13.30;38.01;101243.72;5018719;28;45175;-52
2023/04/20 00:58:29;;;;;;;;;13.00;11.00;;;;;13.32;37.79;101233.75;5018377;28;46061;-51
2023/04/20 01:00:54;;;;;;;;;18.33;12.00;;;;;13.34;37.68;101248.59;4999583;28;45406;-49
2023/04/20 01:03:20;;;;;;;;;16.00;11.33;;;;;13.35;38.34;101244.94;5018233;28;45749;-49
2023/04/20 01:05:45;;;;;;;;;16.00;14.00;;;;;13.34;38.22;101245.09;5018325;28;45482;-49
2023/04/20 01:08:10;;;;;;;;;17.33;15.67;;;;;13.33;38.03;101240.75;5000390;28;48479;-50
2023/04/20 01:10:36;;;;;;;;;14.67;10.00;;;;;13.30;37.78;101239.22;5018017;28;45398;-50
2023/04/20 01:13:02;;;;;;;;;13.33;13.00;;;;;13.30;38.24;101243.72;5018248;28;45386;-49
2023/04/20 01:15:28;;;;;;;;;11.33;11.33;;;;;13.27;38.51;101236.00;5018133;28;45416;-51
2023/04/20 01:17:53;;;;;;;;;12.33;11.00;;;;;13.28;38.50;101251.91;5017905;28;46153;-50
2023/04/20 01:20:22;;;;;;;;;5.00;5.00;;;;;13.23;38.58;101244.34;5018028;28;45442;-51
2023/04/20 01:22:49;;;;;;;;;12.67;9.33;;;;;13.18;38.45;101257.25;5018246;28;45293;-49
2023/04/20 01:25:16;;;;;;;;;11.00;10.00;;;;;13.02;38.49;101221.53;5017648;28;45463;-50
2023/04/20 01:27:42;;;;;;;;;18.67;14.00;;;;;13.02;38.42;101234.88;5018026;28;46383;-47
2023/04/20 01:30:08;;;;;;;;;10.33;8.67;;;;;12.88;38.67;101231.72;5017679;28;45458;-49
2023/04/20 01:32:33;;;;;;;;;14.00;10.33;;;;;12.69;38.57;101216.69;5017925;28;45415;-49
2023/04/20 01:35:00;;;;;;;;;9.00;7.33;;;;;12.78;39.19;101232.78;5018338;28;45304;-48
2023/04/20 01:37:25;;;;;;;;;14.33;9.00;;;;;12.74;39.25;101232.25;5017816;28;46651;-48
2023/04/20 01:39:51;;;;;;;;;12.00;9.33;;;;;12.58;39.25;101213.34;5017796;28;45321;-49
2023/04/20 01:42:16;;;;;;;;;11.00;8.67;;;;;12.61;39.26;101210.41;5017886;28;45293;-49
2023/04/20 01:44:41;;;;;;;;;11.67;9.00;;;;;12.55;39.25;101217.16;5017873;28;45417;-50
2023/04/20 01:47:07;;;;;;;;;11.33;9.00;;;;;12.53;39.72;101220.97;5017678;28;46038;-50
2023/04/20 01:49:32;;;;;;;;;13.33;9.33;;;;;12.45;39.60;101211.88;5017412;28;45508;-50
2023/04/20 01:51:57;;;;;;;;;7.00;7.00;;;;;12.34;39.85;101214.72;5017845;28;45170;-49
2023/04/20 01:54:23;;;;;;;;;12.67;11.00;;;;;12.27;39.99;101218.97;5017883;28;45194;-48
2023/04/20 01:56:48;;;;;;;;;12.67;9.67;;;;;12.24;40.11;101213.94;5017353;28;47050;-49
2023/04/20 01:59:13;;;;;;;;;10.33;8.67;;;;;12.20;39.76;101221.38;5017396;28;45276;-48
2023/04/20 02:01:39;;;;;;;;;16.00;10.33;;;;;12.17;40.30;101218.16;5017471;28;45170;-50
2023/04/20 02:04:04;;;;;;;;;9.00;9.00;;;;;12.12;40.15;101223.09;5017828;28;45188;-48
2023/04/20 02:06:30;;;;;;;;;7.33;6.00;;;;;11.95;40.69;101198.00;5017370;28;46344;-50
2023/04/20 02:08:56;;;;;;;;;9.00;7.00;;;;;12.03;40.02;101208.78;5017194;28;45405;-48
2023/04/20 02:11:21;;;;;;;;;14.00;11.67;;;;;12.01;40.62;101216.13;5017243;28;45321;-52
2023/04/20 02:13:46;;;;;;;;;14.00;11.33;;;;;11.97;40.54;101220.91;5017170;28;45386;-47
2023/04/20 02:16:12;;;;;;;;;12.00;8.67;;;;;11.92;40.31;101225.78;5016987;28;46157;-50
2023/04/20 02:18:38;;;;;;;;;11.00;9.33;;;;;11.86;40.27;101220.22;5017230;28;45298;-51
2023/04/20 02:21:04;;;;;;;;;9.00;8.00;;;;;11.81;40.55;101220.59;5017301;28;45281;-48
2023/04/20 02:23:30;;;;;;;;;8.00;7.00;;;;;11.63;40.42;101201.84;5017239;28;45261;-47
2023/04/20 02:25:55;;;;;;;;;11.00;7.00;;;;;11.72;41.14;101224.13;5016920;28;45450;-48
2023/04/20 02:28:20;;;;;;;;;12.00;7.00;;;;;11.69;40.98;101227.06;5017199;28;45387;-47
2023/04/20 02:30:46;;;;;;;;;7.00;7.00;;;;;11.66;41.08;101222.03;4999041;28;45170;-48
2023/04/20 02:33:11;;;;;;;;;7.33;6.33;;;;;11.58;40.98;101219.22;5017510;28;45399;-47
2023/04/20 02:35:36;;;;;;;;;9.67;7.00;;;;;11.58;41.12;101225.38;5017154;28;46959;-47
2023/04/20 02:38:02;;;;;;;;;10.00;7.67;;;;;11.41;41.55;101210.13;5017046;28;45221;-47
2023/04/20 02:40:27;;;;;;;;;13.00;8.00;;;;;11.52;41.44;101225.13;5017400;28;45290;-49
2023/04/20 02:42:53;;;;;;;;;9.00;8.00;;;;;11.38;41.64;101215.75;5017256;28;45292;-49
2023/04/20 02:45:18;;;;;;;;;5.33;3.33;;;;;11.45;41.39;101230.16;5016528;28;46282;-50
2023/04/20 02:47:43;;;;;;;;;6.00;6.00;;;;;11.40;41.57;101237.75;5016925;28;45209;-49
2023/04/20 02:50:10;;;;;;;;;4.67;4.67;;;;;11.36;41.75;101228.34;5017003;28;45467;-50
2023/04/20 02:52:35;;;;;;;;;7.00;6.67;;;;;11.34;41.61;101233.00;5017370;28;45329;-48
2023/04/20 02:55:00;;;;;;;;;9.00;6.67;;;;;11.20;41.61;101215.56;5016658;28;46246;-50
2023/04/20 02:57:26;;;;;;;;;7.00;6.67;;;;;11.26;41.81;101228.34;5016647;28;45376;-51
2023/04/20 02:59:51;;;;;;;;;8.00;4.00;;;;;11.26;41.81;101241.66;5015851;28;45433;-50
2023/04/20 03:02:16;;;;;;;;;10.33;7.33;;;;;11.24;41.82;101238.28;5016946;28;45474;-51
2023/04/20 03:04:42;;;;;;;;;10.00;7.00;;;;;11.10;41.90;101215.56;5016640;28;46445;-48
2023/04/20 03:07:09;;;;;;;;;7.33;5.33;;;;;11.16;41.77;101231.00;5016421;28;45442;-49
2023/04/20 03:09:37;;;;;;;;;12.67;5.67;;;;;11.15;41.64;101231.97;5016734;28;45363;-49
2023/04/20 03:12:04;;;;;;;;;8.67;7.33;;;;;11.17;42.34;101242.50;5016764;28;45296;-48
2023/04/20 03:14:29;;;;;;;;;9.00;7.00;;;;;11.11;42.08;101229.72;5016286;28;46375;-51
2023/04/20 03:16:55;;;;;;;;;6.33;6.33;;;;;11.11;41.90;101235.06;5016492;28;45238;-51
2023/04/20 03:19:21;;;;;;;;;8.00;6.67;;;;;11.10;41.77;101242.22;5016472;28;45531;-50
2023/04/20 03:21:46;;;;;;;;;11.00;7.00;;;;;11.09;42.05;101245.84;5016569;28;45359;-51
2023/04/20 03:24:11;;;;;;;;;6.67;4.00;;;;;11.08;41.83;101238.84;5016482;28;47190;-48
2023/04/20 03:26:37;;;;;;;;;6.00;5.00;;;;;11.05;42.07;101233.78;5019694;28;45326;-48
2023/04/20 03:29:02;;;;;;;;;8.00;6.00;;;;;11.04;41.94;101239.25;5020188;28;45341;-50
2023/04/20 03:31:27;;;;;;;;;5.33;4.67;;;;;11.04;42.07;101237.44;5019983;28;45387;-49
2023/04/20 03:33:53;;;;;;;;;7.00;7.00;;;;;11.01;41.88;101242.19;5018736;28;46499;-50
2023/04/20 03:36:18;;;;;;;;;5.33;5.00;;;;;10.99;41.94;101234.31;5019761;28;45339;-51
2023/04/20 03:38:44;;;;;;;;;7.33;6.00;;;;;10.92;42.11;101225.22;5019777;28;45451;-51
2023/04/20 03:41:09;;;;;;;;;8.00;6.00;;;;;10.95;42.02;101227.59;5019953;28;45386;-49
2023/04/20 03:43:34;;;;;;;;;5.67;4.00;;;;;10.90;41.78;101225.34;5019613;28;45350;-51
2023/04/20 03:46:00;;;;;;;;;4.33;4.33;;;;;10.91;41.90;101227.06;5019511;28;45313;-50
2023/04/20 03:48:26;;;;;;;;;6.33;5.00;;;;;10.88;41.93;101222.00;5019789;28;45360;-51
2023/04/20 03:50:52;;;;;;;;;6.00;6.00;;;;;10.88;42.13;101226.47;5019720;28;45485;-50
2023/04/20 03:53:17;;;;;;;;;5.33;5.33;;;;;10.87;41.82;101227.44;5019298;28;45805;-50
2023/04/20 03:55:42;;;;;;;;;6.67;5.00;;;;;10.86;41.79;101234.59;5019378;28;45288;-49
2023/04/20 03:58:08;;;;;;;;;6.00;5.67;;;;;10.84;42.11;101233.91;5019601;28;45277;-48
2023/04/20 04:00:33;;;;;;;;;4.33;4.33;;;;;10.83;41.99;101234.88;5019607;28;45142;-48
2023/04/20 04:02:59;;;;;;;;;7.00;5.67;;;;;10.79;41.87;101240.59;5019190;28;46028;-50
2023/04/20 04:05:24;;;;;;;;;7.00;5.33;;;;;10.70;41.96;101232.47;5018527;28;45258;-53
2023/04/20 04:07:50;;;;;;;;;7.33;6.33;;;;;10.67;42.07;101234.53;5019460;28;45291;-49
2023/04/20 04:10:17;;;;;;;;;7.00;5.67;;;;;10.65;42.30;101239.97;5019500;28;45431;-52
2023/04/20 04:12:44;;;;;;;;;6.00;4.33;;;;;10.62;42.03;101242.06;5019789;28;45399;-50
2023/04/20 04:15:10;;;;;;;;;7.00;5.33;;;;;10.45;42.20;101222.28;5019113;28;45437;-49
2023/04/20 04:17:35;;;;;;;;;4.67;3.00;;;;;10.56;42.36;101247.94;5019164;28;45312;-51
2023/04/20 04:20:00;;;;;;;;;8.00;6.33;;;;;10.52;42.54;101247.38;5019367;28;45257;-49
2023/04/20 04:22:25;;;;;;;;;6.33;4.67;;;;;10.49;42.24;101252.94;5018870;28;46016;-50
2023/04/20 04:24:53;;;;;;;;;5.33;5.33;;;;;10.44;42.40;101250.69;5019181;28;45253;-51
2023/04/20 04:27:19;;;;;;;;;6.67;5.00;;;;;10.40;42.24;101253.75;5001134;28;45452;-49
2023/04/20 04:29:45;;;;;;;;;8.00;6.00;;;;;10.32;42.67;101250.91;5019334;28;45236;-51
2023/04/20 04:32:11;;;;;;;;;6.67;6.67;;;;;10.36;42.33;101265.63;5018658;28;45390;-50
2023/04/20 04:34:37;;;;;;;;;6.67;6.67;;;;;10.17;42.37;101247.72;5018840;28;45479;-49
2023/04/20 04:37:02;;;;;;;;;4.67;4.00;;;;;10.25;42.33;101263.91;5018712;28;45442;-49
2023/04/20 04:39:28;;;;;;;;;11.67;7.00;;;;;10.07;42.41;101252.13;5019091;28;45342;-52
2023/04/20 04:41:54;;;;;;;;;8.67;7.33;;;;;10.19;42.21;101278.50;5018687;28;45394;-50
2023/04/20 04:44:20;;;;;;;;;9.00;6.67;;;;;10.16;42.50;101276.13;5018721;28;45276;-49
2023/04/20 04:46:46;;;;;;;;;6.33;6.00;;;;;10.15;42.52;101277.09;5018648;28;45297;-50
2023/04/20 04:49:11;;;;;;;;;7.67;6.33;;;;;10.12;42.52;101282.69;5001391;28;45373;-48
2023/04/20 04:51:37;;;;;;;;;10.00;10.00;;;;;10.09;42.43;101280.28;5017306;28;45449;-52
2023/04/20 04:54:02;;;;;;;;;6.33;6.33;;;;;10.07;42.35;101284.03;5018426;28;45167;-50
2023/04/20 04:56:28;;;;;;;;;7.33;7.00;;;;;10.05;42.60;101283.34;5018817;28;45395;-49
2023/04/20 04:58:53;;;;;;;;;6.67;6.00;;;;;10.03;42.31;101285.25;5018714;28;45460;-51
2023/04/20 05:01:19;;;;;;;;;7.00;5.67;;;;;10.00;42.27;101291.69;5018131;28;47395;-50
2023/04/20 05:03:45;;;;;;;;;12.00;7.00;;;;;10.00;42.74;101292.53;5018288;28;45360;-50
2023/04/20 05:06:10;;;;;;;;;7.00;7.00;;;;;9.98;42.54;101293.63;5018220;28;45482;-50
2023/04/20 05:08:36;;;;;;;;;7.00;7.00;;;;;9.92;42.73;101296.81;5018610;28;45513;-52
2023/04/20 05:11:01;;;;;;;;;5.00;3.67;;;;;9.93;42.41;101299.34;5018210;28;46017;-51
2023/04/20 05:13:26;;;;;;;;;6.67;6.00;;;;;9.90;42.50;101296.09;5018448;28;45354;-49
2023/04/20 05:15:51;;;;;;;;;5.00;5.00;;;;;9.90;42.10;101298.75;5018409;28;45340;-52
2023/04/20 05:18:17;;;;;;;;;7.33;5.00;;;;;9.86;42.50;101298.19;5018421;28;45411;-49
2023/04/20 05:20:42;;;;;;;;;6.00;6.00;;;;;9.88;42.65;101304.19;5018120;28;46194;-51
2023/04/20 05:23:08;;;;;;;;;9.33;6.33;;;;;9.88;42.32;101311.34;5017922;28;45316;-52
2023/04/20 05:25:33;;;;;;;;;7.67;6.00;;;;;9.87;42.21;101310.50;5018547;28;45822;-51
2023/04/20 05:27:59;;;;;;;;;8.00;8.00;;;;;9.83;42.43;101306.41;5018614;28;45354;-48
2023/04/20 05:30:24;;;;;;;;;10.00;10.00;;;;;9.86;42.27;101321.22;5018497;28;45801;-49
2023/04/20 05:32:50;;;;;;;;;10.00;6.00;;;;;9.86;42.54;101322.09;5018219;28;45348;-50
2023/04/20 05:35:15;;;;;;;;;7.67;7.00;;;;;9.89;42.18;101313.00;5017969;28;45405;-50
2023/04/20 05:37:41;;;;;;;;;10.00;7.67;;;;;9.88;42.70;101321.97;5018144;28;45507;-50
2023/04/20 05:40:08;;;;;;;;;6.25;6.00;;;;;9.89;43.11;101319.16;5017797;28;45464;-51
2023/04/20 05:42:33;;;;;;;;;7.25;7.25;;;;;9.88;42.20;101312.19;5017674;28;45367;-51
2023/04/20 05:44:58;;;;;;;;;8.00;7.00;;;;;9.90;42.44;101314.69;5017585;28;45388;-52
2023/04/20 05:47:24;;;;;;;;;6.25;6.25;;;;;9.88;42.19;101314.84;5016916;28;45387;-49
2023/04/20 05:49:50;;;;;;;;;10.67;7.33;;;;;9.90;42.29;101312.03;5017404;28;46134;-51
2023/04/20 05:52:15;;;;;;;;;8.67;6.00;;;;;9.89;42.30;101313.84;5017459;28;45288;-51
2023/04/20 05:54:41;;;;;;;;;7.67;5.33;;;;;9.91;42.86;101316.41;5017755;28;45498;-52
2023/04/20 05:57:06;;;;;;;;;14.33;10.00;;;;;9.93;42.54;101319.75;4999719;28;45376;-49
2023/04/20 05:59:31;;;;;;;;;8.50;8.50;;;;;9.87;42.72;101307.84;5017486;28;45407;-48
2023/04/20 06:01:57;;;;;;;;;7.00;7.00;;;;;9.82;42.92;101295.88;5017379;28;45936;-50
2023/04/20 06:04:22;;;;;;;;;6.33;6.33;;;;;9.96;42.64;101307.06;5017648;28;45298;-49
2023/04/20 06:06:47;;;;;;;;;8.00;7.33;;;;;10.00;42.26;101313.81;5017933;28;45225;-51
2023/04/20 06:09:13;;;;;;;;;9.50;7.75;;;;;10.08;42.72;101322.97;5017355;28;46978;-52
2023/04/20 06:11:39;;;;;;;;;11.00;9.67;;;;;10.07;42.06;101313.28;5017304;28;45242;-51
2023/04/20 06:14:04;;;;;;;;;9.67;9.00;;;;;10.10;42.40;101315.69;5017399;28;45430;-50
2023/04/20 06:16:29;;;;;;;;;12.00;8.67;;;;;10.12;42.20;101309.28;5017634;28;45386;-49
2023/04/20 06:18:55;;;;;;;;;10.67;10.00;;;;;10.15;42.17;101311.66;5017140;28;45986;-50
2023/04/20 06:21:23;;;;;;;;;28.25;24.00;;;;;10.18;42.49;101310.56;5017218;28;45381;-52
2023/04/20 06:23:48;;;;;;;;;22.00;20.00;;;;;10.19;42.26;101305.09;5017239;28;45367;-50
2023/04/20 06:26:14;;;;;;;;;20.33;11.33;;;;;10.22;41.64;101296.88;5017429;28;45355;-47
2023/04/20 06:28:39;;;;;;;;;9.67;7.00;;;;;10.29;41.80;101305.22;5016822;28;46148;-51
2023/04/20 06:31:05;;;;;;;;;8.67;6.67;;;;;10.33;41.94;101305.81;5014413;28;45961;-50
2023/04/20 06:33:30;;;;;;;;;8.67;7.00;;;;;10.37;41.68;101313.38;5029979;28;45588;-51
2023/04/20 06:35:56;;;;;;;;;12.00;7.00;;;;;10.36;41.60;101309.00;5036861;28;45513;-50
2023/04/20 06:38:22;;;;;;;;;15.67;7.00;;;;;10.42;41.57;101316.47;5036609;28;46203;-50
2023/04/20 06:40:48;;;;;;;;;8.00;8.00;;;;;10.48;41.27;101320.41;5036784;28;45439;-49
2023/04/20 06:43:13;;;;;;;;;8.00;7.00;;;;;10.54;41.48;101319.06;5036914;28;45327;-51
2023/04/20 06:45:39;;;;;;;;;13.33;11.00;;;;;10.57;41.16;101322.28;5036911;28;45335;-52
2023/04/20 06:48:05;;;;;;;;;10.00;10.00;;;;;10.64;41.22;101323.44;5036460;28;46285;-50
2023/04/20 06:50:30;;;;;;;;;4.00;3.00;;;;;10.71;41.21;101308.66;5035705;28;45454;-49
2023/04/20 06:52:55;;;;;;;;;18.67;9.33;;;;;10.78;40.85;101318.75;5036829;28;45402;-48
2023/04/20 06:55:21;;;;;;;;;13.67;9.00;;;;;10.80;40.86;101320.31;5019147;28;45351;-51
2023/04/20 06:57:46;;;;;;;;;9.33;9.33;;;;;10.73;40.75;101295.19;5036586;28;45805;-50
2023/04/20 07:00:12;;;;;;;;;10.00;10.00;;;;;10.99;40.92;101309.72;5039745;28;45170;-55
2023/04/20 07:02:45;;;;;;;;;14.33;8.33;;;;;11.15;40.81;101317.19;5040173;28;45758;-48
2023/04/20 07:05:11;;;;;;;;;11.33;8.00;;;;;11.46;39.96;101312.63;5040280;28;45493;-52
2023/04/20 07:07:37;;;;;;;;;12.33;10.00;;;;;12.80;38.24;101309.06;5040075;28;45332;-49
2023/04/20 07:10:03;;;;;;;;;16.00;13.67;;;;;14.31;36.29;101311.91;5022229;28;45404;-49
2023/04/20 07:12:28;;;;;;;;;38.50;30.50;;;;;15.59;34.17;101313.63;5040097;28;45321;-48
2023/04/20 07:14:54;;;;;;;;;9.00;8.00;;;;;16.66;33.02;101309.03;5040455;28;45447;-52
2023/04/20 07:17:19;;;;;;;;;8.67;8.67;;;;;17.54;31.01;101295.38;5039663;28;46296;-52
2023/04/20 07:19:45;;;;;;;;;10.67;10.00;;;;;18.43;30.12;101298.31;5039311;28;45229;-47
2023/04/20 07:22:10;;;;;;;;;10.00;9.00;;;;;19.05;30.08;101297.13;5040093;28;45229;-50
2023/04/20 07:24:35;;;;;;;;;10.00;8.67;;;;;19.56;29.22;101289.78;5040316;28;45476;-49
2023/04/20 07:27:01;;;;;;;;;11.67;10.00;;;;;20.07;28.25;101284.25;5039909;28;46031;-47
2023/04/20 07:29:27;;;;;;;;;11.33;9.67;;;;;20.51;26.97;101287.69;5039691;28;45268;-49
2023/04/20 07:31:52;;;;;;;;;11.67;9.33;;;;;20.83;27.98;101278.09;5039901;28;45724;-51
2023/04/20 07:34:17;;;;;;;;;11.00;8.00;;;;;21.07;26.65;101282.97;5039855;28;45482;-49
2023/04/20 07:36:43;;;;;;;;;12.67;9.33;;;;;21.52;25.42;101272.50;5039610;28;46413;-50
2023/04/20 07:39:08;;;;;;;;;11.33;9.67;;;;;21.82;25.75;101281.06;5039633;28;45437;-51
2023/04/20 07:41:35;;;;;;;;;10.67;10.00;;;;;22.20;24.57;101264.19;5039469;28;45452;-51
2023/04/20 07:44:00;;;;;;;;;8.33;7.33;;;;;22.61;24.23;101272.03;5039901;28;45523;-52
2023/04/20 07:46:27;;;;;;;;;12.25;10.00;;;;;22.72;24.49;101261.59;5039537;28;46129;-49
2023/04/20 07:48:52;;;;;;;;;12.00;12.00;;;;;22.66;24.04;101276.81;5039378;28;45322;-50
2023/04/20 07:51:18;;;;;;;;;10.25;8.75;;;;;22.35;25.31;101270.22;5039716;28;45416;-50
2023/04/20 07:53:43;;;;;;;;;10.75;9.00;;;;;22.22;25.42;101274.84;5038842;28;45316;-51
2023/04/20 07:56:08;;;;;;;;;11.00;9.75;;;;;22.10;24.44;101267.31;5039402;28;46211;-49
2023/04/20 07:58:37;;;;;;;;;10.25;10.25;;;;;21.96;24.89;101267.53;5039465;28;45448;-52
2023/04/20 08:01:02;;;;;;;;;12.00;10.25;;;;;21.76;28.03;101267.53;5039638;28;45383;-50
2023/04/20 08:03:28;;;;;;;;;29.33;25.67;;;;;21.61;26.67;101265.84;5039241;28;45433;-50
2023/04/20 08:05:53;;;;;;;;;12.75;12.75;;;;;21.63;25.45;101265.66;5039142;28;45457;-50
2023/04/20 08:08:19;;;;;;;;;13.50;10.00;;;;;21.77;24.80;101266.47;5039222;28;45337;-51
2023/04/20 08:10:44;;;;;;;;;11.00;10.00;;;;;22.03;25.11;101263.75;5038832;28;45427;-51
2023/04/20 08:13:09;;;;;;;;;11.25;11.25;;;;;22.29;25.41;101268.38;5039483;28;45282;-52
2023/04/20 08:15:35;;;;;;;;;11.75;10.50;;;;;22.59;24.76;101257.88;5039297;28;45464;-48
2023/04/20 08:18:00;;;;;;;;;10.75;9.25;;;;;22.87;24.16;101262.97;5038966;28;45368;-52
2023/04/20 08:20:25;;;;;;;;;9.75;9.50;;;;;23.25;23.90;101258.63;5039180;28;45483;-49
2023/04/20 08:22:52;;;;;;;;;49.00;40.00;;;;;23.74;23.54;101248.94;5039147;28;45393;-50
2023/04/20 08:25:17;;;;;;;;;15.25;14.00;;;;;24.56;23.09;101236.81;5038631;28;45654;-48
2023/04/20 08:27:42;;;;;;;;;16.25;12.25;;;;;25.98;21.42;101235.44;5021395;28;45196;-50
2023/04/20 08:30:08;;;;;;;;;12.00;10.00;;;;;28.06;19.58;101221.44;5038795;28;46821;-49
2023/04/20 08:32:33;;;;;;;;;36.25;30.00;;;;;30.01;17.96;101223.31;5039131;28;45353;-51
2023/04/20 08:34:59;;;;;;;;;40.00;32.33;;;;;31.55;17.08;101221.91;5038739;28;45335;-51
2023/04/20 08:37:24;;;;;;;;;13.00;12.25;;;;;32.60;15.44;101221.16;5038916;28;45435;-47
2023/04/20 08:39:50;;;;;;;;;9.50;9.00;;;;;33.53;15.42;101217.56;5039050;28;45227;-50
2023/04/20 08:42:15;;;;;;;;;13.25;13.25;;;;;34.36;14.18;101226.69;5038583;28;46057;-52
2023/04/20 08:44:41;;;;;;;;;11.50;10.25;;;;;34.91;14.92;101217.97;5038500;28;46041;-51
2023/04/20 08:47:09;;;;;;;;;13.50;12.00;;;;;35.57;13.52;101221.69;5038518;28;45477;-51
2023/04/20 08:49:38;;;;;;;;;11.80;11.80;;;;;36.40;14.08;101222.59;5038650;28;45311;-50
2023/04/20 08:52:03;;;;;;;;;14.20;14.20;;;;;37.01;12.84;101229.63;5039034;28;45239;-51
2023/04/20 08:54:29;;;;;;;;;14.25;13.00;;;;;37.57;12.18;101224.66;5038510;28;46194;-51
2023/04/20 08:56:54;;;;;;;;;14.00;14.00;;;;;38.02;11.38;101221.84;5038401;28;45534;-49
2023/04/20 08:59:19;;;;;;;;;15.25;12.25;;;;;38.59;11.57;101210.72;5038655;28;45781;-51
2023/04/20 09:01:45;;;;;;;;;12.50;11.50;;;;;39.16;11.00;101214.22;5038653;28;45240;-50
2023/04/20 09:04:19;;;;;;;;;23.25;23.00;;;;;39.80;10.72;101209.88;5037912;28;46073;-49
2023/04/20 09:06:49;;;;;;;;;14.20;14.20;;;;;40.27;10.55;101212.63;5038559;28;45399;-52
2023/04/20 09:09:15;;;;;;;;;10.80;8.80;;;;;40.63;9.83;101206.53;5038246;28;45408;-52
2023/04/20 09:11:41;;;;;;;;;12.25;11.00;;;;;40.79;10.51;101206.72;5037725;28;45566;-53
2023/04/20 09:14:09;;;;;;;;;12.00;10.75;;;;;41.06;10.20;101194.22;5037276;28;46143;-51
2023/04/20 09:16:38;;;;;;;;;12.00;10.00;;;;;41.33;9.44;101190.81;5038207;28;45243;-52
2023/04/20 09:19:04;;;;;;;;;13.80;9.80;;;;;41.46;9.08;101191.69;5038238;28;45351;-51
2023/04/20 09:21:31;;;;;;;;;12.00;9.00;;;;;41.77;8.94;101191.16;5037806;28;45336;-51
2023/04/20 09:24:01;;;;;;;;;12.00;11.40;;;;;41.96;9.29;101173.84;5036651;28;46353;-53
2023/04/20 09:26:30;;;;;;;;;10.20;10.00;;;;;42.30;9.18;101182.94;5038115;28;45717;-53
2023/04/20 09:28:55;;;;;;;;;11.40;8.20;;;;;42.56;9.26;101176.94;5037406;28;45416;-54
2023/04/20 09:31:22;;;;;;;;;12.00;9.00;;;;;42.58;10.02;101178.22;5038013;28;45327;-53
2023/04/20 09:34:02;;;;;;;;;11.40;11.40;;;;;42.52;8.53;101170.41;5037773;28;47016;-57
2023/04/20 09:36:38;;;;;;;;;12.60;9.60;;;;;42.60;8.69;101170.31;5037809;28;45280;-49
2023/04/20 09:39:07;;;;;;;;;10.20;8.60;;;;;42.76;8.19;101163.97;5037606;28;45420;-53
2023/04/20 09:41:33;;;;;;;;;12.00;12.00;;;;;42.91;8.28;101154.81;5038136;28;45627;-53
2023/04/20 09:44:10;;;;;;;;;12.60;10.20;;;;;42.18;8.70;101155.78;5132580;27;45372;-53
2023/04/20 09:46:39;;;;;;;;;13.40;11.80;;;;;42.28;9.04;101151.72;5115185;27;45325;-52
2023/04/20 09:49:06;;;;;;;;;11.00;10.20;;;;;41.71;10.81;101152.63;5114952;27;45384;-53
2023/04/20 09:51:37;;;;;;;;;10.00;8.60;;;;;41.19;9.71;101151.22;5115516;27;45452;-53
2023/04/20 09:54:04;;;;;;;;;8.80;8.00;;;;;40.78;9.30;101138.97;5097182;27;45341;-52
2023/04/20 09:56:30;;;;;;;;;11.80;8.40;;;;;41.35;9.09;101134.66;5115087;27;45431;-51
2023/04/20 09:58:57;;;;;;;;;8.00;8.00;;;;;41.64;9.44;101114.13;5115130;27;45344;-51
2023/04/20 10:01:23;;;;;;;;;10.00;9.60;;;;;41.51;9.27;101126.41;5115115;27;45448;-52
2023/04/20 10:03:49;;;;;;;;;7.20;7.20;;;;;41.30;9.31;101129.28;5114856;27;47465;-53
2023/04/20 10:06:30;;;;;;;;;9.20;9.00;;;;;41.74;9.70;101124.00;5114563;27;45477;-50
2023/04/20 10:08:56;;;;;;;;;9.20;9.20;;;;;42.04;9.19;101130.19;5114941;27;45338;-53
2023/04/20 10:11:29;;;;;;;;;9.40;8.00;;;;;42.17;10.07;101129.00;5115143;27;45247;-53
2023/04/20 10:13:58;;;;;;;;;9.80;7.80;;;;;42.63;8.71;101131.59;5114720;27;46658;-53
2023/04/20 10:16:25;;;;;;;;;8.80;8.20;;;;;42.08;9.01;101119.94;5096118;27;45801;-51
2023/04/20 10:18:59;;;;;;;;;9.20;7.80;;;;;38.43;11.32;101132.53;5114961;27;45163;-52
2023/04/20 10:21:25;;;;;;;;;11.40;8.00;;;;;35.19;13.14;101120.22;5114846;27;45454;-53
2023/04/20 10:23:51;;;;;;;;;9.00;9.00;;;;;32.54;14.52;101126.75;5114461;27;45990;-52
2023/04/20 10:26:17;;;;;;;;;9.20;9.20;;;;;30.31;15.81;101117.56;5114731;27;45300;-51
2023/04/20 10:28:43;;;;;;;;;13.00;12.25;;;;;28.64;17.08;101120.69;5114420;27;45342;-51
2023/04/20 10:31:12;;;;;;;;;8.00;8.00;;;;;26.92;17.94;101137.00;5114681;27;45362;-47
2023/04/20 10:33:50;;;;;;;;;10.80;10.80;;;;;25.13;19.02;101127.66;5114268;27;46276;-48
2023/04/20 10:36:27;;;;;;;;;10.80;8.40;;;;;23.87;20.21;101137.41;5114067;27;45468;-50
2023/04/20 10:38:52;;;;;;;;;8.60;8.40;;;;;22.88;20.71;101126.28;5114188;27;45176;-48
2023/04/20 10:41:18;;;;;;;;;12.50;11.75;;;;;21.93;21.79;101130.63;5114480;27;45452;-50
2023/04/20 10:43:44;;;;;;;;;11.00;10.50;;;;;21.05;22.13;101119.22;5113773;27;45984;-50
2023/04/20 10:46:27;;;;;;;;;13.00;11.50;;;;;20.37;24.19;101127.31;5114110;27;45329;-49
2023/04/20 10:48:57;;;;;;;;;11.50;10.25;;;;;19.97;24.38;101121.72;5114032;27;45540;-53
2023/04/20 10:51:23;;;;;;;;;13.25;8.25;;;;;19.52;24.86;101129.28;5114365;27;45411;-51
2023/04/20 10:54:06;;;;;;;;;16.75;11.00;;;;;18.85;25.84;101111.69;5109789;27;45309;-51
2023/04/20 10:56:51;;;;;;;;;9.33;9.00;;;;;18.53;25.99;101122.91;5100075;27;45377;-49
2023/04/20 10:59:19;;;;;;;;;14.33;9.00;;;;;18.25;26.55;101133.56;5099754;27;45313;-50
2023/04/20 11:01:45;;;;;;;;;10.00;10.00;;;;;18.01;26.73;101127.44;5100476;27;45506;-49
2023/04/20 11:04:12;;;;;;;;;11.00;11.00;;;;;17.81;27.51;101131.69;5099843;27;46047;-48
2023/04/20 11:06:39;;;;;;;;;15.33;13.00;;;;;17.55;28.16;101124.03;5099881;27;45301;-48
2023/04/20 11:09:23;;;;;;;;;12.67;10.33;;;;;17.40;27.23;101129.38;5100120;27;45416;-51
2023/04/20 11:12:03;;;;;;;;;18.33;11.67;;;;;17.16;27.52;101131.28;5100663;27;45268;-50
2023/04/20 11:14:34;;;;;;;;;16.67;12.67;;;;;16.91;28.37;101132.47;5098570;27;47183;-50